Main page
METAR-TAF:

METAR-TAF

Airports :

Agen, France

Agen La Garenne Airport

latitude: 44-11N, longitude: 000-36E, elevation: 61 m

Current weather observation

The report was made 36 minutes ago, at 01:30 UTC
Wind 4 kt from the East/Southeast, varying between East and South
Temperature 18°C
Humidity 68%
Pressure 1012 hPa
Visibility 10 km or more
no clouds below 1500 m and no cumulonimbus

METAR: LFBA 290130Z AUTO 12004KT 100V190 CAVOK 18/12 Q1012

Time: 04:06 (02:06 UTC)

Forecast

The report was made 12 hours and 6 minutes ago, at 14:00 UTC
Forecast valid from 28 at 15 UTC to 28 at 24 UTC
Wind 8 kt from the East/Southeast
Visibility 10 km or more
no clouds below 1500 m and no cumulonimbus

TAF: LFBA 281400Z 2815/2824 12008KT CAVOK

Weather observations and forecasts of more than 4000 airports (METAR and TAF reports).

The available stations are represented by yellow and red dots on the map.

Hover mouse over dot to see the name of the station.

Then click to see weather observations and forecasts.

To change the map : click on the green buttons with a black cross to zoom in, on the green button with a dash to zoom out, or on the green arrows for adjacent maps.


METAR-TAF: